createdAt,value
2022-11-05T00:01:03.248Z,101233.22
2022-11-05T00:03:29.626Z,101235.78
2022-11-05T00:05:55.981Z,101232.28
2022-11-05T00:08:22.289Z,101241.91
2022-11-05T00:10:50.013Z,101239.38
2022-11-05T00:13:16.394Z,101237.69
2022-11-05T00:15:42.706Z,101236.28
2022-11-05T00:18:08.997Z,101233.91
2022-11-05T00:20:35.302Z,101236.78
2022-11-05T00:23:01.612Z,101244.75
2022-11-05T00:25:27.974Z,101241.78
2022-11-05T00:27:59.873Z,101247.34
2022-11-05T00:30:26.589Z,101249.25
2022-11-05T00:32:53.250Z,101249.53
2022-11-05T00:35:20.804Z,101268.19
2022-11-05T00:37:50.419Z,101269.41
2022-11-05T00:40:17.310Z,101272.16
2022-11-05T00:42:43.741Z,101272.28
2022-11-05T00:45:11.717Z,101281.06
2022-11-05T00:47:38.276Z,101283.03
2022-11-05T00:50:04.987Z,101282.44
2022-11-05T00:52:31.259Z,101286.19
2022-11-05T00:54:57.567Z,101292.44
2022-11-05T00:57:23.863Z,101288.09
2022-11-05T00:59:50.156Z,101287.13
2022-11-05T01:02:17.960Z,101289.91
2022-11-05T01:04:44.486Z,101300.25
2022-11-05T01:07:10.750Z,101301.44
2022-11-05T01:09:37.146Z,101306.19
2022-11-05T01:12:03.637Z,101310.75
2022-11-05T01:14:29.913Z,101317.00
2022-11-05T01:16:56.228Z,101321.56
2022-11-05T01:19:23.831Z,101318.59
2022-11-05T01:21:50.136Z,101323.28
2022-11-05T01:24:16.444Z,101327.03
2022-11-05T01:26:42.757Z,101330.19
2022-11-05T01:29:10.858Z,101325.97
2022-11-05T01:31:37.190Z,101329.00
2022-11-05T01:34:03.475Z,101330.31
2022-11-05T01:36:31.693Z,101335.13
2022-11-05T01:38:57.988Z,101339.00
2022-11-05T01:41:24.580Z,101341.16
2022-11-05T01:43:53.593Z,101340.94
2022-11-05T01:46:22.640Z,101336.00
2022-11-05T01:48:51.795Z,101346.34
2022-11-05T01:51:21.068Z,101350.31
2022-11-05T01:53:50.640Z,101345.88
2022-11-05T01:56:18.378Z,101351.06
2022-11-05T01:58:46.444Z,101348.66
2022-11-05T02:01:12.710Z,101354.75
2022-11-05T02:03:39.315Z,101353.53
2022-11-05T02:06:06.277Z,101359.19
2022-11-05T02:08:36.763Z,101354.00
2022-11-05T02:11:05.294Z,101346.59
2022-11-05T02:13:31.586Z,101349.66
2022-11-05T02:16:01.900Z,101342.72
2022-11-05T02:18:35.215Z,101340.66
2022-11-05T02:21:14.117Z,101342.56
2022-11-05T02:23:53.478Z,101341.97
2022-11-05T02:26:40.943Z,101331.41
2022-11-05T02:29:27.522Z,101334.03
2022-11-05T02:32:00.030Z,101335.50
2022-11-05T02:34:29.756Z,101330.00
2022-11-05T02:36:58.014Z,101329.03
2022-11-05T02:39:33.193Z,101326.41
2022-11-05T02:42:05.690Z,101327.34
2022-11-05T02:44:38.431Z,101317.13
2022-11-05T02:47:07.754Z,101322.16
2022-11-05T02:49:39.607Z,101317.59
2022-11-05T02:52:08.404Z,101317.31
2022-11-05T02:54:36.397Z,101319.34
2022-11-05T02:57:03.644Z,101316.94
2022-11-05T02:59:30.287Z,101327.22
2022-11-05T03:01:57.313Z,101331.66
2022-11-05T03:04:25.438Z,101330.28
2022-11-05T03:07:00.971Z,101335.06
2022-11-05T03:09:37.656Z,101327.88
2022-11-05T03:12:10.747Z,101325.69
2022-11-05T03:14:40.758Z,101328.44
2022-11-05T03:17:09.947Z,101327.59
2022-11-05T03:19:39.906Z,101324.94
2022-11-05T03:22:09.713Z,101327.94
2022-11-05T03:24:39.009Z,101332.38
2022-11-05T03:27:07.147Z,101327.94
2022-11-05T03:29:41.114Z,101330.59
2022-11-05T03:32:07.917Z,101326.00
2022-11-05T03:34:41.585Z,101334.75
2022-11-05T03:37:09.830Z,101328.38
2022-11-05T03:39:38.605Z,101338.09
2022-11-05T03:42:06.020Z,101343.47
2022-11-05T03:44:34.242Z,101341.66
2022-11-05T03:47:03.431Z,101344.44
2022-11-05T03:49:33.930Z,101342.41
2022-11-05T03:52:04.120Z,101347.13
2022-11-05T03:54:32.649Z,101340.56
2022-11-05T03:57:02.006Z,101342.13
2022-11-05T03:59:29.597Z,101348.13
2022-11-05T04:01:56.439Z,101340.94
2022-11-05T04:04:22.839Z,101348.00
2022-11-05T04:06:49.120Z,101341.69
2022-11-05T04:09:15.517Z,101347.88
2022-11-05T04:11:43.130Z,101350.03
2022-11-05T04:14:09.439Z,101354.56
2022-11-05T04:16:35.732Z,101354.06
2022-11-05T04:19:02.151Z,101360.41
2022-11-05T04:21:28.405Z,101357.47
2022-11-05T04:23:55.046Z,101356.63
2022-11-05T04:26:21.359Z,101360.69
2022-11-05T04:28:49.005Z,101357.19
2022-11-05T04:31:15.287Z,101358.78
2022-11-05T04:33:41.576Z,101364.47
2022-11-05T04:36:08.074Z,101360.91
2022-11-05T04:38:34.359Z,101362.47
2022-11-05T04:41:12.219Z,101365.94
2022-11-05T04:43:38.489Z,101372.06
2022-11-05T04:46:06.210Z,101366.78
2022-11-05T04:48:32.496Z,101373.75
2022-11-05T04:50:58.787Z,101371.31
2022-11-05T04:53:25.081Z,101375.38
2022-11-05T04:55:51.376Z,101383.09
2022-11-05T04:58:17.829Z,101379.09
2022-11-05T05:00:44.137Z,101382.06
2022-11-05T05:03:12.138Z,101385.41
2022-11-05T05:05:38.733Z,101383.00
2022-11-05T05:08:05.299Z,101377.97
2022-11-05T05:10:31.693Z,101384.28
2022-11-05T05:12:57.983Z,101380.19
2022-11-05T05:15:24.619Z,101385.88
2022-11-05T05:17:51.311Z,101392.31
2022-11-05T05:20:19.492Z,101387.25
2022-11-05T05:22:50.866Z,101390.09
2022-11-05T05:25:17.155Z,101397.34
2022-11-05T05:27:43.446Z,101397.50
2022-11-05T05:30:10.368Z,101398.34
2022-11-05T05:32:36.687Z,101396.41
2022-11-05T05:35:03.063Z,101391.16
2022-11-05T05:37:30.669Z,101399.78
2022-11-05T05:39:56.954Z,101393.78
2022-11-05T05:42:23.237Z,101399.69
2022-11-05T05:44:49.524Z,101403.06
2022-11-05T05:47:15.824Z,101406.44
2022-11-05T05:49:42.094Z,101403.16
2022-11-05T05:52:08.376Z,101408.53
2022-11-05T05:54:41.313Z,101410.97
2022-11-05T05:57:08.904Z,101407.47
2022-11-05T05:59:35.206Z,101409.16
2022-11-05T06:02:01.532Z,101408.22
2022-11-05T06:04:27.925Z,101411.47
2022-11-05T06:06:54.229Z,101410.31
2022-11-05T06:09:20.535Z,101405.69
2022-11-05T06:11:48.193Z,101410.72
2022-11-05T06:14:14.462Z,101409.88
2022-11-05T06:16:40.755Z,101417.78
2022-11-05T06:19:07.583Z,101422.09
2022-11-05T06:21:34.259Z,101416.81
2022-11-05T06:24:01.017Z,101432.75
2022-11-05T06:26:27.412Z,101431.19
2022-11-05T06:28:55.019Z,101439.28
2022-11-05T06:31:22.234Z,101432.31
2022-11-05T06:33:48.545Z,101436.66
2022-11-05T06:36:15.507Z,101432.22
2022-11-05T06:38:41.836Z,101442.13
2022-11-05T06:41:10.472Z,101446.44
2022-11-05T06:43:37.475Z,101441.91
2022-11-05T06:46:05.282Z,101446.97
2022-11-05T06:48:31.794Z,101439.06
2022-11-05T06:50:58.079Z,101442.56
2022-11-05T06:53:25.311Z,101438.97
2022-11-05T06:55:51.623Z,101444.00
2022-11-05T06:58:17.915Z,101451.81
2022-11-05T07:00:44.299Z,101448.97
2022-11-05T07:03:12.869Z,101454.97
2022-11-05T07:05:41.797Z,101455.72
2022-11-05T07:08:08.201Z,101460.84
2022-11-05T07:10:34.603Z,101458.84
2022-11-05T07:13:05.163Z,101455.16
2022-11-05T07:15:34.249Z,101454.97
2022-11-05T07:18:01.056Z,101467.78
2022-11-05T07:20:33.470Z,101456.31
2022-11-05T07:23:01.178Z,101462.13
2022-11-05T07:25:27.484Z,101469.69
2022-11-05T07:27:53.733Z,101462.41
2022-11-05T07:30:20.050Z,101470.94
2022-11-05T07:32:46.315Z,101468.91
2022-11-05T07:35:12.617Z,101469.53
2022-11-05T07:37:43.587Z,101479.75
2022-11-05T07:40:10.232Z,101474.16
2022-11-05T07:42:36.540Z,101480.06
2022-11-05T07:45:02.944Z,101479.72
2022-11-05T07:47:29.242Z,101481.31
2022-11-05T07:49:55.514Z,101480.16
2022-11-05T07:52:21.816Z,101485.19
2022-11-05T07:54:49.422Z,101490.03
2022-11-05T07:57:15.704Z,101490.78
2022-11-05T07:59:42.001Z,101495.72
2022-11-05T08:02:09.689Z,101491.78
2022-11-05T08:04:36.100Z,101488.69
2022-11-05T08:07:02.405Z,101496.41
2022-11-05T08:09:28.690Z,101489.72
2022-11-05T08:12:01.448Z,101492.03
2022-11-05T08:14:29.085Z,101494.34
2022-11-05T08:16:56.903Z,101493.88
2022-11-05T08:19:23.172Z,101500.25
2022-11-05T08:21:49.479Z,101492.00
2022-11-05T08:24:15.775Z,101495.97
2022-11-05T08:26:42.114Z,101491.94
2022-11-05T08:29:09.763Z,101498.53
2022-11-05T08:31:36.047Z,101495.44
2022-11-05T08:34:02.895Z,101495.94
2022-11-05T08:36:29.249Z,101500.63
2022-11-05T08:38:55.680Z,101495.84
2022-11-05T08:41:21.963Z,101497.88
2022-11-05T08:43:48.268Z,101495.53
2022-11-05T08:46:15.915Z,101495.03
2022-11-05T08:48:42.188Z,101497.19
2022-11-05T08:51:08.484Z,101495.03
2022-11-05T08:53:34.768Z,101494.56
2022-11-05T08:56:01.069Z,101497.34
2022-11-05T08:58:27.363Z,101496.84
2022-11-05T09:00:53.696Z,101498.88
2022-11-05T09:03:21.332Z,101502.03
2022-11-05T09:05:47.629Z,101505.84
2022-11-05T09:08:15.156Z,101506.06
2022-11-05T09:10:41.775Z,101507.41
2022-11-05T09:13:13.073Z,101510.38
2022-11-05T09:15:43.140Z,101499.31
2022-11-05T09:18:11.504Z,101505.69
2022-11-05T09:20:39.139Z,101510.34
2022-11-05T09:23:05.560Z,101504.31
2022-11-05T09:25:32.090Z,101509.03
2022-11-05T09:28:05.662Z,101509.22
2022-11-05T09:30:31.949Z,101508.34
2022-11-05T09:32:58.248Z,101510.22
2022-11-05T09:35:24.662Z,101513.66
2022-11-05T09:37:55.553Z,101513.03
2022-11-05T09:40:25.149Z,101514.56
2022-11-05T09:42:52.418Z,101523.38
2022-11-05T09:45:20.103Z,101521.31
2022-11-05T09:47:48.742Z,101520.22
2022-11-05T09:50:16.457Z,101523.31
2022-11-05T09:52:42.881Z,101530.88
2022-11-05T09:55:17.928Z,101533.41
2022-11-05T09:57:45.969Z,101527.56
2022-11-05T10:00:13.680Z,101533.78
2022-11-05T10:02:45.928Z,101536.63
2022-11-05T10:05:13.109Z,101542.53
2022-11-05T10:07:42.972Z,101536.31
2022-11-05T10:10:17.641Z,101546.28
2022-11-05T10:12:47.988Z,101538.38
2022-11-05T10:15:16.554Z,101543.84
2022-11-05T10:17:46.348Z,101542.50
2022-11-05T10:20:17.358Z,101547.38
2022-11-05T10:22:49.160Z,101540.28
2022-11-05T10:25:17.940Z,101534.97
2022-11-05T10:27:47.733Z,101543.34
2022-11-05T10:30:14.086Z,101541.94
2022-11-05T10:32:42.500Z,101554.78
2022-11-05T10:35:11.970Z,101551.28
2022-11-05T10:37:40.876Z,101561.31
2022-11-05T10:40:13.914Z,101553.34
2022-11-05T10:42:46.664Z,101559.09
2022-11-05T10:45:18.411Z,101558.25
2022-11-05T10:47:49.789Z,101562.75
2022-11-05T10:50:17.199Z,101567.06
2022-11-05T10:52:52.733Z,101562.31
2022-11-05T10:55:21.530Z,101561.22
2022-11-05T10:57:48.133Z,101557.59
2022-11-05T11:00:24.302Z,101560.97
2022-11-05T11:02:51.646Z,101560.81
2022-11-05T11:05:20.027Z,101563.91
2022-11-05T11:07:52.836Z,101554.25
2022-11-05T11:10:20.669Z,101562.69
2022-11-05T11:12:47.247Z,101556.66
2022-11-05T11:15:14.942Z,101551.47
2022-11-05T11:17:42.583Z,101553.75
2022-11-05T11:20:17.956Z,101550.09
2022-11-05T11:22:55.964Z,101542.97
2022-11-05T11:25:23.783Z,101540.03
2022-11-05T11:27:50.495Z,101539.78
2022-11-05T11:30:18.202Z,101540.38
2022-11-05T11:32:46.730Z,101536.59
2022-11-05T11:35:20.048Z,101535.38
2022-11-05T11:37:46.619Z,101530.75
2022-11-05T11:40:15.448Z,101533.13
2022-11-05T11:42:45.175Z,101535.94
2022-11-05T11:45:15.551Z,101542.09
2022-11-05T11:47:42.930Z,101534.53
2022-11-05T11:50:30.675Z,101534.41
2022-11-05T11:53:15.799Z,101529.09
2022-11-05T11:55:56.058Z,101529.66
2022-11-05T11:58:22.812Z,101531.75
2022-11-05T12:00:51.763Z,101534.56
2022-11-05T12:03:23.385Z,101541.28
2022-11-05T12:05:53.195Z,101529.94
2022-11-05T12:08:28.754Z,101538.22
2022-11-05T12:10:58.592Z,101529.53
2022-11-05T12:13:32.404Z,101529.13
2022-11-05T12:16:05.006Z,101527.00
2022-11-05T12:18:35.127Z,101525.19
2022-11-05T12:21:05.989Z,101510.47
2022-11-05T12:23:52.991Z,101502.75
2022-11-05T12:26:24.531Z,101495.41
2022-11-05T12:29:17.751Z,101504.66
2022-11-05T12:31:48.111Z,101508.00
2022-11-05T12:34:25.260Z,101508.00
2022-11-05T12:37:02.295Z,101507.16
2022-11-05T12:39:37.383Z,101504.34
2022-11-05T12:42:08.024Z,101506.19
2022-11-05T12:44:41.810Z,101510.53
2022-11-05T12:47:16.188Z,101493.03
2022-11-05T12:49:47.405Z,101497.50
2022-11-05T12:52:26.539Z,101494.28
2022-11-05T12:55:01.223Z,101476.22
2022-11-05T12:57:29.526Z,101480.84
2022-11-05T12:59:58.493Z,101478.19
2022-11-05T13:02:28.959Z,101472.31
2022-11-05T13:04:59.011Z,101481.56
2022-11-05T13:07:27.807Z,101484.25
2022-11-05T13:09:57.127Z,101478.78
2022-11-05T13:12:26.379Z,101477.09
2022-11-05T13:14:54.938Z,101471.78
2022-11-05T13:17:23.271Z,101468.28
2022-11-05T13:20:03.399Z,101463.09
2022-11-05T13:22:33.131Z,101458.75
2022-11-05T13:25:04.332Z,101460.44
2022-11-05T13:27:51.280Z,101452.31
2022-11-05T13:30:21.867Z,101446.16
2022-11-05T13:32:51.729Z,101450.50
2022-11-05T13:35:22.305Z,101455.13
2022-11-05T13:37:51.751Z,101452.59
2022-11-05T13:40:21.355Z,101444.91
2022-11-05T13:43:05.534Z,101447.72
2022-11-05T13:45:46.695Z,101439.06
2022-11-05T13:48:31.207Z,101433.75
2022-11-05T13:51:03.793Z,101428.72
2022-11-05T13:53:44.484Z,101421.72
2022-11-05T13:56:20.407Z,101420.88
2022-11-05T13:58:55.333Z,101417.38
2022-11-05T14:01:29.566Z,101414.72
2022-11-05T14:03:57.371Z,101414.72
2022-11-05T14:06:25.027Z,101420.31
2022-11-05T14:08:51.588Z,101422.31
2022-11-05T14:11:21.078Z,101425.25
2022-11-05T14:13:50.636Z,101420.06
2022-11-05T14:16:18.376Z,101420.91
2022-11-05T14:18:46.121Z,101418.53
2022-11-05T14:21:44.204Z,101420.34
2022-11-05T14:24:27.537Z,101428.47
2022-11-05T14:27:12.258Z,101425.81
2022-11-05T14:29:39.594Z,101428.78
2022-11-05T14:32:23.628Z,101430.47
2022-11-05T14:34:54.600Z,101431.44
2022-11-05T14:37:26.643Z,101431.44
2022-11-05T14:39:54.048Z,101421.78
2022-11-05T14:42:23.510Z,101426.25
2022-11-05T14:45:01.320Z,101419.25
2022-11-05T14:47:29.174Z,101425.56
2022-11-05T14:49:59.268Z,101421.66
2022-11-05T14:52:27.284Z,101421.81
2022-11-05T14:54:54.922Z,101416.63
2022-11-05T14:57:36.114Z,101423.22
2022-11-05T15:00:03.034Z,101420.84
2022-11-05T15:02:34.554Z,101422.97
2022-11-05T15:05:19.521Z,101420.16
2022-11-05T15:07:55.781Z,101432.19
2022-11-05T15:10:26.282Z,101434.84
2022-11-05T15:12:55.189Z,101431.50
2022-11-05T15:15:22.607Z,101421.69
2022-11-05T15:17:55.530Z,101415.69
2022-11-05T15:20:23.562Z,101429.28
2022-11-05T15:22:53.272Z,101423.13
2022-11-05T15:25:23.219Z,101424.09
2022-11-05T15:27:54.471Z,101430.25
2022-11-05T15:30:21.899Z,101423.41
2022-11-05T15:32:48.261Z,101427.16
2022-11-05T15:35:18.751Z,101425.50
2022-11-05T15:37:54.673Z,101425.34
2022-11-05T15:40:25.666Z,101425.78
2022-11-05T15:43:06.886Z,101422.97
2022-11-05T15:45:33.322Z,101418.09
2022-11-05T15:47:59.603Z,101415.03
2022-11-05T15:50:25.979Z,101409.31
2022-11-05T15:52:53.134Z,101415.72
2022-11-05T15:55:20.553Z,101414.50
2022-11-05T15:57:51.034Z,101419.38
2022-11-05T16:00:18.671Z,101410.97
2022-11-05T16:02:50.680Z,101418.28
2022-11-05T16:05:17.241Z,101416.72
2022-11-05T16:07:44.329Z,101411.81
2022-11-05T16:10:17.536Z,101410.84
2022-11-05T16:12:43.821Z,101414.56
2022-11-05T16:15:22.473Z,101412.09
2022-11-05T16:17:50.433Z,101409.69
2022-11-05T16:20:21.253Z,101411.66
2022-11-05T16:22:48.429Z,101408.28
2022-11-05T16:25:26.891Z,101415.56
2022-11-05T16:27:53.198Z,101404.25
2022-11-05T16:30:21.005Z,101409.56
2022-11-05T16:32:49.526Z,101406.34
2022-11-05T16:35:17.727Z,101409.69
2022-11-05T16:37:49.198Z,101398.25
2022-11-05T16:40:19.053Z,101402.72
2022-11-05T16:42:45.540Z,101402.56
2022-11-05T16:45:12.840Z,101399.94
2022-11-05T16:47:40.602Z,101398.09
2022-11-05T16:50:13.297Z,101398.94
2022-11-05T16:52:39.583Z,101404.25
2022-11-05T16:55:06.046Z,101402.56
2022-11-05T16:57:32.530Z,101401.75
2022-11-05T16:59:59.705Z,101402.56
2022-11-05T17:02:26.253Z,101409.41
2022-11-05T17:04:54.038Z,101408.44
2022-11-05T17:07:20.612Z,101406.75
2022-11-05T17:09:46.996Z,101410.09
2022-11-05T17:12:13.815Z,101421.28
2022-11-05T17:14:40.082Z,101415.97
2022-11-05T17:17:06.424Z,101409.44
2022-11-05T17:19:32.842Z,101414.88
2022-11-05T17:22:00.503Z,101421.03
2022-11-05T17:24:26.797Z,101419.03
2022-11-05T17:26:53.090Z,101418.25
2022-11-05T17:29:19.416Z,101413.91
2022-11-05T17:31:45.750Z,101404.13
2022-11-05T17:34:12.043Z,101415.59
2022-11-05T17:36:38.412Z,101416.38
2022-11-05T17:39:06.089Z,101408.44
2022-11-05T17:41:32.430Z,101406.38
2022-11-05T17:43:58.770Z,101401.91
2022-11-05T17:46:25.065Z,101409.03
2022-11-05T17:48:51.471Z,101395.88
2022-11-05T17:51:18.664Z,101398.66
2022-11-05T17:53:44.996Z,101395.16
2022-11-05T17:56:15.884Z,101395.75
2022-11-05T17:58:44.753Z,101395.16
2022-11-05T18:01:24.128Z,101400.34
2022-11-05T18:03:50.502Z,101420.06
2022-11-05T18:06:16.787Z,101411.91
2022-11-05T18:08:43.718Z,101416.03
2022-11-05T18:11:09.998Z,101418.94
2022-11-05T18:13:37.916Z,101417.41
2022-11-05T18:16:04.498Z,101426.34
2022-11-05T18:18:30.850Z,101422.84
2022-11-05T18:20:57.549Z,101428.00
2022-11-05T18:23:23.914Z,101431.91
2022-11-05T18:25:50.267Z,101434.44
2022-11-05T18:28:16.589Z,101433.88
2022-11-05T18:30:44.360Z,101444.34
2022-11-05T18:33:10.987Z,101440.84
2022-11-05T18:35:40.269Z,101441.41
2022-11-05T18:38:06.560Z,101434.97
2022-11-05T18:40:32.873Z,101443.75
2022-11-05T18:42:59.241Z,101445.84
2022-11-05T18:45:29.590Z,101446.69
2022-11-05T18:47:58.698Z,101427.56
2022-11-05T18:50:24.979Z,101425.88
2022-11-05T18:52:51.296Z,101416.50
2022-11-05T18:55:17.778Z,101415.97
2022-11-05T18:57:44.097Z,101424.19
2022-11-05T19:00:11.120Z,101426.00
2022-11-05T19:02:37.587Z,101428.09
2022-11-05T19:07:52.046Z,101430.88
2022-11-05T19:10:18.375Z,101432.69
2022-11-05T19:12:44.695Z,101428.78
2022-11-05T19:15:11.135Z,101415.78
2022-11-05T19:17:37.434Z,101418.44
2022-11-05T19:20:06.278Z,101417.34
2022-11-05T19:22:32.625Z,101412.28
2022-11-05T19:24:58.989Z,101420.97
2022-11-05T19:27:25.335Z,101416.50
2022-11-05T19:29:51.661Z,101421.22
2022-11-05T19:32:17.948Z,101416.09
2022-11-05T19:34:47.565Z,101422.91
2022-11-05T19:37:15.469Z,101419.00
2022-11-05T19:39:41.776Z,101412.00
2022-11-05T19:42:08.083Z,101408.38
2022-11-05T19:44:35.642Z,101408.97
2022-11-05T19:47:01.991Z,101405.59
2022-11-05T19:49:28.314Z,101397.91
2022-11-05T19:51:54.650Z,101407.53
2022-11-05T19:54:22.418Z,101400.28
2022-11-05T19:56:51.828Z,101406.72
2022-11-05T19:59:18.257Z,101406.13
2022-11-05T20:01:44.638Z,101403.47
2022-11-05T20:04:11.046Z,101407.09
2022-11-05T20:06:37.694Z,101400.97
2022-11-05T20:09:23.007Z,101389.81
2022-11-05T20:11:51.620Z,101391.75
2022-11-05T20:14:19.109Z,101391.03
2022-11-05T20:16:45.646Z,101395.94
2022-11-05T20:19:13.293Z,101395.94
2022-11-05T20:21:39.658Z,101389.91
2022-11-05T20:24:06.138Z,101382.94
2022-11-05T20:26:32.772Z,101378.34
2022-11-05T20:29:00.686Z,101363.53
2022-11-05T20:31:26.997Z,101357.66
2022-11-05T20:33:53.270Z,101348.44
2022-11-05T20:36:20.643Z,101358.34
2022-11-05T20:38:47.798Z,101368.69
2022-11-05T20:41:14.203Z,101371.59
2022-11-05T20:43:40.897Z,101382.78
2022-11-05T20:46:09.274Z,101370.09
2022-11-05T20:48:35.764Z,101379.84
2022-11-05T20:51:04.630Z,101386.84
2022-11-05T20:53:31.035Z,101387.41
2022-11-05T20:55:57.301Z,101383.34
2022-11-05T20:58:23.574Z,101382.38
2022-11-05T21:00:51.768Z,101385.88
2022-11-05T21:03:19.406Z,101384.63
2022-11-05T21:05:46.406Z,101367.88
2022-11-05T21:08:12.939Z,101371.38
2022-11-05T21:10:39.515Z,101367.88
2022-11-05T21:13:05.828Z,101380.44
2022-11-05T21:15:32.149Z,101377.63
2022-11-05T21:17:59.190Z,101375.13
2022-11-05T21:20:26.848Z,101382.38
2022-11-05T21:22:53.140Z,101384.75
2022-11-05T21:25:19.472Z,101384.06
2022-11-05T21:27:45.750Z,101380.03
2022-11-05T21:30:12.393Z,101374.72
2022-11-05T21:32:38.688Z,101367.03
2022-11-05T21:35:05.405Z,101377.06
2022-11-05T21:37:33.118Z,101379.19
2022-11-05T21:39:59.384Z,101373.31
2022-11-05T21:42:25.688Z,101379.06
2022-11-05T21:44:56.316Z,101386.44
2022-11-05T21:47:27.036Z,101383.63
2022-11-05T21:49:53.306Z,101380.97
2022-11-05T21:52:19.583Z,101376.06
2022-11-05T21:54:47.601Z,101375.38
2022-11-05T21:57:15.486Z,101372.00
2022-11-05T21:59:41.893Z,101376.47
2022-11-05T22:02:09.123Z,101362.94
2022-11-05T22:04:36.876Z,101362.69
2022-11-05T22:07:03.191Z,101358.47
2022-11-05T22:09:29.517Z,101356.38
2022-11-05T22:11:57.318Z,101346.88
2022-11-05T22:14:23.634Z,101342.56
2022-11-05T22:16:50.061Z,101345.59
2022-11-05T22:19:16.351Z,101344.91
2022-11-05T22:21:42.640Z,101337.94
2022-11-05T22:24:09.578Z,101332.91
2022-11-05T22:26:36.323Z,101325.22
2022-11-05T22:29:04.101Z,101317.56
2022-11-05T22:31:36.014Z,101308.75
2022-11-05T22:34:02.916Z,101316.72
2022-11-05T22:36:29.199Z,101315.28
2022-11-05T22:38:55.525Z,101319.88
2022-11-05T22:41:21.997Z,101319.75
2022-11-05T22:43:48.860Z,101317.22
2022-11-05T22:46:17.931Z,101318.53
2022-11-05T22:48:44.358Z,101309.72
2022-11-05T22:51:12.002Z,101311.41
2022-11-05T22:53:38.667Z,101300.66
2022-11-05T22:56:06.129Z,101306.66
2022-11-05T22:58:32.759Z,101299.41
2022-11-05T23:00:59.299Z,101310.97
2022-11-05T23:03:27.491Z,101303.88
2022-11-05T23:05:57.037Z,101305.28
2022-11-05T23:08:23.417Z,101297.47
2022-11-05T23:10:49.703Z,101294.94
2022-11-05T23:13:16.009Z,101300.97
2022-11-05T23:15:42.306Z,101293.84
2022-11-05T23:18:08.864Z,101301.34
2022-11-05T23:20:36.496Z,101298.56
2022-11-05T23:23:02.797Z,101290.22
2022-11-05T23:25:29.086Z,101290.88
2022-11-05T23:27:55.537Z,101286.97
2022-11-05T23:30:22.863Z,101282.91
2022-11-05T23:32:49.570Z,101281.22
2022-11-05T23:35:16.086Z,101280.25
2022-11-05T23:37:43.835Z,101276.91
2022-11-05T23:40:12.219Z,101278.16
2022-11-05T23:42:38.492Z,101276.63
2022-11-05T23:45:06.358Z,101272.03
2022-11-05T23:47:34.560Z,101277.59
2022-11-05T23:50:00.888Z,101276.63
2022-11-05T23:52:27.170Z,101267.81
2022-11-05T23:54:54.789Z,101271.31
2022-11-05T23:57:21.068Z,101270.59
2022-11-05T23:59:47.334Z,101260.16
